Beach, ND

4:16 AM MST on November 21, 2019 (GMT -0700)
Beach

Weather History for K20U - October, 2019

Change the Weather History Date:

Wednesday, October 23, 2019

  Actual Average (WUND) Record (WUND)
Temperature  
Mean Temperature 32 °F -  
Max Temperature 37 °F - - (-1)
Min Temperature 28 °F - - (-1)
Degree Days  
Heating Degree Days 32    
Moisture  
Dew Point 29 °F    
Average Humidity 88    
Maximum Humidity 100    
Minimum Humidity 56    
Precipitation  
Precipitation 0.00 in - - ()
Sea Level Pressure  
Sea Level Pressure 30.11 in    
Wind  
Wind Speed 11 mph ()    
Max Wind Speed 20 mph    
Max Gust Speed 25 mph    
Visibility 8.0 miles    
Events Snow    
Averages and records for this station are not official NWS values.
T = Trace of Precipitation, MM = Missing Value Source: Averaged Metar Reports

Daily Weather History Graph

Daily Weather History Graph

Search for Another Location

Airport or City:

Astronomy

Oct. 23, 2019 Rise Set
Actual Time 7:25 AM MDT 5:54 PM MDT
Civil Twilight 6:53 AM MDT 6:25 PM MDT
Nautical Twilight 6:18 AM MDT 7:01 PM MDT
Astronomical Twilight 5:43 AM MDT 7:36 PM MDT
Moon 1:18 AM MDT (10/23) 4:11 PM MDT (10/23)
Length of Visible Light 11h 31m
Length of Day
10h 29m
Waning Crescent, 26% of the Moon is Illuminated
Oct 23
Waning Crescent
Oct 27
New
Nov 4
First Quarter
Nov 12
Full
Nov 19
Last Quarter

Hourly Weather History & Observations

Time (MDT) Temp. Windchill Dew Point Humidity Pressure Visibility Wind Dir Wind Speed Gust Speed Precip Events Conditions
12:15 AM 37.4 °F 29.3 °F 37.4 °F 100% 29.71 in 8.0 mi ESE 12.7 mph - N/A   Light Drizzle
12:35 AM 37.4 °F 31.4 °F 37.4 °F 100% 29.71 in 7.0 mi ESE 8.1 mph - N/A   Light Drizzle
1:35 AM - - - N/A% 29.73 in 3.0 mi East 17.3 mph 23.0 mph N/A   Light Drizzle
1:55 AM 32.0 °F 20.8 °F 32.0 °F 100% 29.74 in 3.0 mi East 17.3 mph - N/A   Overcast
2:15 AM 32.0 °F 21.2 °F 32.0 °F 100% 29.75 in 3.0 mi East 16.1 mph - N/A   Light Drizzle
2:35 AM 32.0 °F 20.8 °F 32.0 °F 100% 29.76 in 2.0 mi East 17.3 mph 24.2 mph N/A Snow Light Snow
2:55 AM 32.0 °F 20.5 °F 32.0 °F 100% 29.78 in 1.5 mi East 18.4 mph 25.3 mph N/A Snow Light Snow
3:15 AM 30.2 °F 17.8 °F 30.2 °F 100% 29.79 in 2.0 mi ENE 19.6 mph - N/A Snow Light Snow
3:35 AM 30.2 °F 18.1 °F 30.2 °F 100% 29.82 in 1.8 mi ENE 18.4 mph 25.3 mph N/A Snow Light Snow
3:55 AM 30.2 °F 19.8 °F 30.2 °F 100% 29.84 in 2.5 mi ENE 13.8 mph 19.6 mph N/A Snow Light Snow
4:15 AM 30.2 °F 21.3 °F 30.2 °F 100% 29.85 in 1.5 mi ENE 10.4 mph 17.3 mph N/A Snow Light Snow
4:35 AM 30.2 °F 20.2 °F 30.2 °F 100% 29.87 in 3.0 mi ENE 12.7 mph - N/A Snow Light Snow
4:55 AM 30.2 °F 21.3 °F 30.2 °F 100% 29.90 in 10.0 mi ENE 10.4 mph 17.3 mph N/A   Overcast
5:15 AM 30.2 °F 21.9 °F 30.2 °F 100% 29.91 in 7.0 mi ENE 9.2 mph 16.1 mph N/A Snow Light Snow
5:35 AM - - - N/A% 29.93 in 6.0 mi NE 6.9 mph - N/A   Unknown
5:55 AM - - - N/A% 29.96 in 10.0 mi North 6.9 mph - N/A   Overcast
6:15 AM 30.2 °F 23.4 °F 30.2 °F 100% 29.97 in 8.0 mi North 6.9 mph - N/A   Overcast
6:35 AM 30.2 °F 21.9 °F 30.2 °F 100% 29.99 in 8.0 mi North 9.2 mph - N/A   Overcast
6:55 AM 30.2 °F 21.3 °F 30.2 °F 100% 30.00 in 10.0 mi North 10.4 mph - N/A   Overcast
7:15 AM - - - N/A% 30.02 in 10.0 mi North 11.5 mph - N/A   Overcast
7:35 AM 28.4 °F 18.5 °F 28.4 °F 100% 30.03 in 10.0 mi North 11.5 mph - N/A   Overcast
7:55 AM 28.4 °F 18.5 °F 28.4 °F 100% 30.05 in 10.0 mi North 11.5 mph - N/A   Scattered Clouds
8:15 AM 28.4 °F 19.7 °F 28.4 °F 100% 30.07 in 10.0 mi North 9.2 mph - N/A   Clear
8:35 AM 28.4 °F 19.7 °F 28.4 °F 100% 30.09 in 10.0 mi North 9.2 mph - N/A   Clear
9:15 AM 28.4 °F 20.4 °F 28.4 °F 100% 30.12 in 10.0 mi NNW 8.1 mph - N/A   Clear
9:35 AM 28.4 °F 20.4 °F 28.4 °F 100% 30.13 in 10.0 mi NNW 8.1 mph - N/A   Clear
9:55 AM 28.4 °F 19.7 °F 26.6 °F 93% 30.14 in 10.0 mi NNW 9.2 mph - N/A   Clear
10:15 AM 30.2 °F 21.9 °F 26.6 °F 86% 30.15 in 10.0 mi NNW 9.2 mph - N/A   Clear
10:35 AM 30.2 °F 20.8 °F 28.4 °F 93% 30.16 in 10.0 mi NNW 11.5 mph - N/A   Clear
10:55 AM 30.2 °F 21.3 °F 28.4 °F 93% 30.17 in 10.0 mi NNW 10.4 mph - N/A   Clear
11:15 AM 32.0 °F 23.6 °F 28.4 °F 87% 30.17 in 10.0 mi NNW 10.4 mph - N/A   Clear
11:35 AM 32.0 °F 23.6 °F 26.6 °F 80% 30.18 in 10.0 mi NNW 10.4 mph - N/A   Clear
11:55 AM 33.8 °F 25.8 °F 26.6 °F 75% 30.19 in 10.0 mi NNW 10.4 mph - N/A   Clear
12:15 PM 33.8 °F 25.8 °F 26.6 °F 75% 30.19 in 10.0 mi NNW 10.4 mph - N/A   Partly Cloudy
12:35 PM 33.8 °F 24.3 °F 26.6 °F 75% 30.19 in 10.0 mi NNW 13.8 mph - N/A   Clear
12:55 PM 35.6 °F 27.1 °F 24.8 °F 65% 30.19 in 10.0 mi North 12.7 mph - N/A   Partly Cloudy
1:15 PM 35.6 °F 27.5 °F 24.8 °F 65% 30.20 in 10.0 mi NW 11.5 mph - N/A   Partly Cloudy
1:35 PM 35.6 °F 27.5 °F 24.8 °F 65% 30.20 in 10.0 mi NNW 11.5 mph - N/A   Scattered Clouds
1:55 PM 37.4 °F 31.4 °F 24.8 °F 60% 30.20 in 10.0 mi NW 8.1 mph 17.3 mph N/A   Scattered Clouds
2:15 PM 37.4 °F 30.3 °F 24.8 °F 60% 30.20 in 10.0 mi NW 10.4 mph - N/A   Scattered Clouds
2:35 PM 37.4 °F 30.3 °F 23.0 °F 56% 30.20 in 10.0 mi NW 10.4 mph - N/A   Scattered Clouds
2:55 PM 37.4 °F 30.3 °F 24.8 °F 60% 30.21 in 10.0 mi NW 10.4 mph - N/A   Mostly Cloudy
3:15 PM 37.4 °F 30.8 °F 24.8 °F 60% 30.21 in 10.0 mi NNW 9.2 mph - N/A   Mostly Cloudy
3:35 PM 37.4 °F 29.3 °F 23.0 °F 56% 30.22 in 10.0 mi WNW 12.7 mph - N/A   Scattered Clouds
3:55 PM 37.4 °F 29.3 °F 23.0 °F 56% 30.22 in 10.0 mi NW 12.7 mph - N/A   Partly Cloudy
4:15 PM 37.4 °F 30.3 °F 23.0 °F 56% 30.23 in 10.0 mi NW 10.4 mph - N/A   Clear
4:55 PM 35.6 °F 29.2 °F 24.8 °F 65% 30.24 in 10.0 mi NW 8.1 mph - N/A   Overcast
5:15 PM 35.6 °F 29.9 °F 26.6 °F 70% 30.24 in 10.0 mi WNW 6.9 mph - N/A   Overcast
5:35 PM 35.6 °F 29.9 °F 24.8 °F 65% 30.24 in 10.0 mi WNW 6.9 mph - N/A   Overcast
5:55 PM 35.6 °F 29.9 °F 26.6 °F 70% 30.24 in 10.0 mi WNW 6.9 mph - N/A   Overcast
6:15 PM 35.6 °F 29.2 °F 26.6 °F 70% 30.25 in 10.0 mi West 8.1 mph - N/A   Overcast
6:35 PM 35.6 °F 29.2 °F 28.4 °F 75% 30.26 in 10.0 mi WNW 8.1 mph - N/A   Overcast
6:55 PM 33.8 °F 27.0 °F 32.0 °F 93% 30.26 in 4.0 mi West 8.1 mph - N/A Snow Light Snow
7:15 PM 33.8 °F 27.0 °F 33.8 °F 100% 30.27 in 10.0 mi West 8.1 mph - N/A Snow Light Snow
7:35 PM 33.8 °F 26.4 °F 33.8 °F 100% 30.27 in 10.0 mi WSW 9.2 mph - N/A   Overcast
7:55 PM 33.8 °F 27.7 °F 33.8 °F 100% 30.27 in 9.0 mi WSW 6.9 mph - N/A   Overcast
8:15 PM 33.8 °F 25.3 °F 33.8 °F 100% 30.27 in 9.0 mi WSW 11.5 mph - N/A   Overcast
8:35 PM 35.6 °F 25.5 °F 35.6 °F 100% 30.27 in 7.0 mi WNW 17.3 mph - N/A   Overcast
8:55 PM 33.8 °F 24.3 °F 33.8 °F 100% 30.28 in 4.0 mi WNW 13.8 mph 19.6 mph N/A   Light Drizzle
9:15 PM 33.8 °F 23.5 °F 33.8 °F 100% 30.28 in 5.0 mi WNW 16.1 mph 21.9 mph N/A   Light Drizzle
9:35 PM 33.8 °F 23.9 °F 33.8 °F 100% 30.29 in 3.0 mi NW 15.0 mph - N/A   Light Drizzle
9:55 PM 33.8 °F 24.8 °F 33.8 °F 100% 30.29 in 3.0 mi NW 12.7 mph 18.4 mph N/A Snow Light Snow
10:15 PM 33.8 °F 25.3 °F 33.8 °F 100% 30.29 in 5.0 mi WNW 11.5 mph - N/A   Light Drizzle
10:35 PM 33.8 °F 26.4 °F 33.8 °F 100% 30.30 in 9.0 mi NW 9.2 mph - N/A Snow Light Snow
10:55 PM 33.8 °F 27.0 °F 33.8 °F 100% 30.30 in 9.0 mi WNW 8.1 mph - N/A   Mostly Cloudy
11:15 PM 33.8 °F 27.7 °F 33.8 °F 100% 30.30 in 10.0 mi WNW 6.9 mph - N/A   Overcast
11:35 PM 33.8 °F 27.0 °F 33.8 °F 100% 30.30 in 10.0 mi West 8.1 mph - N/A   Overcast
11:55 PM 33.8 °F 26.4 °F 33.8 °F 100% 30.30 in 10.0 mi West 9.2 mph - N/A   Overcast